map of FAY home
FAY - Airport
Location
City:  Fayetteville, North Carolina, United States
Name:Fayetteville Regional/Grannis Field
ICAO:KFAY
IATA:FAY
FAA LID:FAY

Details
Type:Airport (Part 139 Class I)
Use:Public/Civil
Latitude:3459'28"N (34.991222)
Longitude:7852'49"W (-78.880277)
Datum:WGS 1984
Elevation:189 ft (58 m)
Variation:8.96W (WMM2015 magnetic declination)
-0.05 annual change
Runways:2
Longest:7709 × 150 ft (2350 × 45.5 m), paved

Time
Time Zone:UTC-5 (DST-4)
Local Time:

Weather
METAR:KFAY 210553Z 00000KT 10SM CLR 13/11 A3025 RMK AO2 SLP236 T01330111 10194 20128 50004
TAF:KFAY 210520Z 2106/2206 00000KT P6SM SKC
TEMPO 2109/2112 5SM BR FEW002

Related Locations
Nearby:
Farthest:MQZ: 11643 mi / 18738 km
Margaret River [Margaret River Airport], WA, AU

Find:

   beyond  
but within

Other Information
Maps:
Delays:
NOTAMs:
Links:
Sources:

  
flag of United States
flag of North Carolina
  

Airport Diagram

Airport diagram for FAY

Airport diagram PDF

Sectional Chart

Flight Planning
at skyvector.com

Satellite Image

Google Maps Satellite view

 

Copyright © 2004-2017 Karl L. Swartz. All rights reserved.
The Great Circle Mapper name and logo are trademarks of the Great Circle Mapper.
All other trademarks mentioned herein belong to their respective owners.
Please see credits for attibutions and further copyright information.

  Follow gcmap on Facebook Follow gcmap on Twitter Follow gcmap on Google+ GCmap on LinkedIn

hCard Microformat

Geo Microformat